createdAt,value
2022-08-05T00:02:22.030Z,57275.66
2022-08-05T00:04:55.145Z,57329.94
2022-08-05T00:07:58.848Z,57306.97
2022-08-05T00:10:10.052Z,57254.78
2022-08-05T00:12:56.453Z,57290.28
2022-08-05T00:15:56.161Z,57263.16
2022-08-05T00:18:21.672Z,57277.75
2022-08-05T00:20:50.392Z,57271.50
2022-08-05T00:23:17.528Z,57256.88
2022-08-05T00:26:04.763Z,57277.75
2022-08-05T00:28:31.456Z,57273.56
2022-08-05T00:31:02.990Z,57271.50
2022-08-05T00:34:53.546Z,57267.31
2022-08-05T00:37:13.011Z,57292.38
2022-08-05T00:39:05.203Z,57221.41
2022-08-05T00:41:52.053Z,57271.50
2022-08-05T00:44:30.899Z,57309.06
2022-08-05T00:47:03.723Z,57242.28
2022-08-05T00:49:32.574Z,57286.09
2022-08-05T00:52:00.287Z,57242.28
2022-08-05T00:54:28.193Z,57281.94
2022-08-05T00:56:57.016Z,57281.94
2022-08-05T00:59:23.818Z,57263.16
2022-08-05T01:01:51.074Z,57275.66
2022-08-05T01:04:20.202Z,57300.72
2022-08-05T01:06:53.469Z,57292.38
2022-08-05T01:09:22.687Z,57279.84
2022-08-05T01:11:52.256Z,57290.28
2022-08-05T01:14:41.134Z,57288.19
2022-08-05T01:17:54.231Z,57252.72
2022-08-05T01:20:39.752Z,57284.00
2022-08-05T01:23:23.731Z,57265.22
2022-08-05T01:26:18.317Z,57277.75
2022-08-05T01:28:57.219Z,57281.94
2022-08-05T01:31:45.414Z,57240.19
2022-08-05T01:34:36.956Z,57313.22
2022-08-05T01:37:24.805Z,57284.00
2022-08-05T01:39:58.992Z,57248.53
2022-08-05T01:42:28.107Z,57292.38
2022-08-05T01:45:02.289Z,57277.75
2022-08-05T01:47:38.745Z,57279.84
2022-08-05T01:50:16.163Z,57279.84
2022-08-05T01:52:49.779Z,57298.63
2022-08-05T01:55:20.362Z,57336.19
2022-08-05T01:58:12.459Z,57284.00
2022-08-05T02:00:39.716Z,57265.22
2022-08-05T02:03:29.196Z,57269.41
2022-08-05T02:06:03.688Z,57275.66
2022-08-05T02:08:58.563Z,57288.19
2022-08-05T02:11:33.456Z,57238.09
2022-08-05T02:14:05.536Z,57288.19
2022-08-05T02:16:52.938Z,57244.34
2022-08-05T02:19:35.025Z,57263.16
2022-08-05T02:22:04.784Z,57317.41
2022-08-05T02:24:37.896Z,57296.53
2022-08-05T02:27:09.896Z,57275.66
2022-08-05T02:29:58.459Z,57273.56
2022-08-05T02:32:29.404Z,57321.59
2022-08-05T02:35:13.580Z,57292.38
2022-08-05T02:37:47.840Z,57300.72
2022-08-05T02:40:22.934Z,57296.53
2022-08-05T02:42:54.158Z,57309.06
2022-08-05T02:45:25.228Z,57302.81
2022-08-05T02:48:06.860Z,57304.88
2022-08-05T02:50:44.127Z,57300.72
2022-08-05T02:53:18.698Z,57298.63
2022-08-05T02:55:59.644Z,57298.63
2022-08-05T02:58:28.788Z,57329.94
2022-08-05T03:00:59.040Z,57290.28
2022-08-05T03:03:28.570Z,57325.75
2022-08-05T03:06:55.389Z,57286.09
2022-08-05T03:08:52.163Z,57256.88
2022-08-05T03:11:56.954Z,57302.81
2022-08-05T03:14:13.386Z,57292.38
2022-08-05T03:16:40.679Z,57292.38
2022-08-05T03:19:16.811Z,57306.97
2022-08-05T03:21:48.907Z,57296.53
2022-08-05T03:24:30.228Z,57296.53
2022-08-05T03:27:01.345Z,57317.41
2022-08-05T03:29:45.782Z,57275.66
2022-08-05T03:32:15.801Z,57269.41
2022-08-05T03:34:50.677Z,57271.50
2022-08-05T03:37:19.239Z,57302.81
2022-08-05T03:39:59.357Z,57281.94
2022-08-05T03:42:29.099Z,57294.44
2022-08-05T03:44:56.059Z,57244.34
2022-08-05T03:47:24.225Z,57279.84
2022-08-05T03:49:52.419Z,57273.56
2022-08-05T03:52:39.131Z,57317.41
2022-08-05T03:56:04.637Z,57288.19
2022-08-05T03:58:12.567Z,57275.66
2022-08-05T04:00:42.030Z,57288.19
2022-08-05T04:03:14.989Z,57279.84
2022-08-05T04:05:57.624Z,57233.91
2022-08-05T04:08:34.918Z,57263.16
2022-08-05T04:11:05.187Z,57267.31
2022-08-05T04:13:49.837Z,57206.78
2022-08-05T04:16:25.030Z,57265.22
2022-08-05T04:19:00.193Z,57225.56
2022-08-05T04:22:08.506Z,57210.97
2022-08-05T04:24:18.716Z,57204.69
2022-08-05T04:26:46.660Z,57217.22
2022-08-05T04:29:13.363Z,57210.97
2022-08-05T04:31:41.259Z,57213.06
2022-08-05T04:34:31.943Z,57160.88
2022-08-05T04:36:56.457Z,57200.53
2022-08-05T04:39:23.235Z,57196.34
2022-08-05T04:41:51.411Z,57158.78
2022-08-05T04:44:21.297Z,57160.88
2022-08-05T04:46:58.389Z,57227.66
2022-08-05T04:49:39.169Z,57171.31
2022-08-05T04:52:12.347Z,57188.00
2022-08-05T04:54:38.964Z,57181.75
2022-08-05T04:57:05.682Z,57185.91
2022-08-05T04:59:38.339Z,57185.91
2022-08-05T05:02:36.407Z,57213.06
2022-08-05T05:05:01.672Z,57140.00
2022-08-05T05:07:31.942Z,57173.41
2022-08-05T05:10:02.143Z,57210.97
2022-08-05T05:12:29.814Z,57140.00
2022-08-05T05:14:57.252Z,57190.09
2022-08-05T05:17:55.853Z,57150.44
2022-08-05T05:20:12.120Z,57171.31
2022-08-05T05:22:40.790Z,57150.44
2022-08-05T05:25:16.726Z,57179.66
2022-08-05T05:27:53.464Z,57217.22
2022-08-05T05:30:29.148Z,57175.47
2022-08-05T05:33:00.613Z,57142.09
2022-08-05T05:35:34.122Z,57160.88
2022-08-05T05:38:03.444Z,57131.66
2022-08-05T05:40:33.368Z,57148.34
2022-08-05T05:43:02.086Z,57142.09
2022-08-05T05:45:29.405Z,57133.75
2022-08-05T05:48:07.007Z,57121.22
2022-08-05T05:50:43.894Z,57150.44
2022-08-05T05:53:22.550Z,57137.91
2022-08-05T05:55:52.162Z,57162.97
2022-08-05T05:58:31.881Z,57123.31
2022-08-05T06:01:02.418Z,57144.19
2022-08-05T06:03:53.932Z,57137.91
2022-08-05T06:06:27.948Z,57196.34
2022-08-05T06:08:57.483Z,57150.44
2022-08-05T06:11:24.256Z,57092.00
2022-08-05T06:13:54.045Z,57119.13
2022-08-05T06:16:30.434Z,57160.88
2022-08-05T06:19:01.115Z,57150.44
2022-08-05T06:21:35.953Z,57150.44
2022-08-05T06:24:04.733Z,57140.00
2022-08-05T06:26:33.945Z,57121.22
2022-08-05T06:29:06.484Z,57202.63
2022-08-05T06:31:50.607Z,57144.19
2022-08-05T06:34:19.865Z,57140.00
2022-08-05T06:36:57.429Z,57083.66
2022-08-05T06:39:26.940Z,57102.44
2022-08-05T06:41:54.490Z,57081.56
2022-08-05T06:44:22.007Z,57075.31
2022-08-05T06:46:51.167Z,57108.69
2022-08-05T06:49:18.987Z,57121.22
2022-08-05T06:51:48.504Z,57129.56
2022-08-05T06:54:18.156Z,57119.13
2022-08-05T06:56:55.026Z,57133.75
2022-08-05T06:59:38.741Z,57133.75
2022-08-05T07:02:08.893Z,57181.75
2022-08-05T07:04:35.734Z,57133.75
2022-08-05T07:07:03.537Z,57133.75
2022-08-05T07:09:37.468Z,57131.66
2022-08-05T07:12:08.016Z,57123.31
2022-08-05T07:14:54.053Z,57133.75
2022-08-05T07:18:00.754Z,57144.19
2022-08-05T07:20:32.262Z,57112.88
2022-08-05T07:22:55.098Z,57137.91
2022-08-05T07:25:55.084Z,57127.47
2022-08-05T07:28:11.694Z,57133.75
2022-08-05T07:30:43.898Z,57158.78
2022-08-05T07:33:17.362Z,57150.44
2022-08-05T07:36:03.642Z,57117.03
2022-08-05T07:38:34.860Z,57119.13
2022-08-05T07:42:08.122Z,57098.25
2022-08-05T07:43:56.215Z,57154.59
2022-08-05T07:46:25.360Z,57135.81
2022-08-05T07:49:01.711Z,57119.13
2022-08-05T07:51:40.911Z,57106.59
2022-08-05T07:54:15.618Z,57127.47
2022-08-05T07:57:13.727Z,57127.47
2022-08-05T07:59:38.716Z,57100.34
2022-08-05T08:02:16.168Z,57114.97
2022-08-05T08:04:48.274Z,57106.59
2022-08-05T08:07:16.451Z,57135.81
2022-08-05T08:09:44.978Z,57121.22
2022-08-05T08:12:35.013Z,57135.81
2022-08-05T08:15:03.555Z,57096.16
2022-08-05T08:17:32.049Z,57142.09
2022-08-05T08:20:22.067Z,57110.78
2022-08-05T08:22:55.635Z,57129.56
2022-08-05T08:25:27.042Z,57148.34
2022-08-05T08:28:18.541Z,57129.56
2022-08-05T08:30:57.173Z,57121.22
2022-08-05T08:33:24.010Z,57089.91
2022-08-05T08:36:12.782Z,57104.53
2022-08-05T08:38:40.623Z,57108.69
2022-08-05T08:41:10.756Z,57083.66
2022-08-05T08:45:20.311Z,57119.13
2022-08-05T08:46:31.449Z,57110.78
2022-08-05T08:49:17.407Z,57106.59
2022-08-05T08:52:05.672Z,57087.81
2022-08-05T08:54:34.156Z,57110.78
2022-08-05T08:57:11.233Z,57106.59
2022-08-05T08:59:38.761Z,57079.47
2022-08-05T09:02:09.067Z,57089.91
2022-08-05T09:04:58.235Z,57154.59
2022-08-05T09:07:28.956Z,57148.34
2022-08-05T09:09:56.447Z,57123.31
2022-08-05T09:12:27.313Z,57144.19
2022-08-05T09:15:04.795Z,57175.47
2022-08-05T09:17:40.909Z,57175.47
2022-08-05T09:20:11.266Z,57146.25
2022-08-05T09:23:09.552Z,57148.34
2022-08-05T09:26:00.240Z,57154.59
2022-08-05T09:28:31.475Z,57148.34
2022-08-05T09:31:43.624Z,57169.22
2022-08-05T09:34:05.110Z,57165.03
2022-08-05T09:36:54.944Z,57185.91
2022-08-05T09:39:27.629Z,57144.19
2022-08-05T09:42:08.846Z,57158.78
2022-08-05T09:44:42.820Z,57175.47
2022-08-05T09:47:23.930Z,57179.66
2022-08-05T09:50:01.408Z,57202.63
2022-08-05T09:52:34.856Z,57194.25
2022-08-05T09:55:57.214Z,57162.97
2022-08-05T09:57:58.513Z,57158.78
2022-08-05T10:00:26.674Z,57198.44
2022-08-05T10:02:58.344Z,57177.56
2022-08-05T10:05:28.462Z,57160.88
2022-08-05T10:08:35.256Z,57160.88
2022-08-05T10:10:43.926Z,57181.75
2022-08-05T10:13:10.921Z,57200.53
2022-08-05T10:15:41.995Z,57162.97
2022-08-05T10:18:21.549Z,57181.75
2022-08-05T10:20:57.455Z,57158.78
2022-08-05T10:23:55.289Z,57160.88
2022-08-05T10:26:14.895Z,57158.78
2022-08-05T10:28:46.765Z,57175.47
2022-08-05T10:32:54.349Z,57196.34
2022-08-05T10:34:07.179Z,57171.31
2022-08-05T10:36:39.698Z,57192.19
2022-08-05T10:39:24.310Z,57181.75
2022-08-05T10:42:33.379Z,57171.31
2022-08-05T10:45:02.368Z,57179.66
2022-08-05T10:48:30.313Z,57185.91
2022-08-05T10:51:03.309Z,57185.91
2022-08-05T10:53:38.104Z,57171.31
2022-08-05T10:56:25.451Z,57175.47
2022-08-05T10:58:55.889Z,57171.31
2022-08-05T11:01:54.837Z,57177.56
2022-08-05T11:04:22.151Z,57179.66
2022-08-05T11:07:04.537Z,57204.69
2022-08-05T11:09:46.312Z,57171.31
2022-08-05T11:12:41.246Z,57158.78
2022-08-05T11:15:20.437Z,57200.53
2022-08-05T11:17:59.193Z,57162.97
2022-08-05T11:20:38.972Z,57179.66
2022-08-05T11:24:04.208Z,57173.41
2022-08-05T11:26:28.328Z,57177.56
2022-08-05T11:28:56.659Z,57156.69
2022-08-05T11:31:58.744Z,57162.97
2022-08-05T11:34:36.687Z,57183.84
2022-08-05T11:37:06.218Z,57171.31
2022-08-05T11:40:00.844Z,57123.31
2022-08-05T11:42:40.311Z,57135.81
2022-08-05T11:45:14.529Z,57190.09
2022-08-05T11:47:55.251Z,57175.47
2022-08-05T11:50:22.822Z,57181.75
2022-08-05T11:52:53.186Z,57192.19
2022-08-05T11:55:24.038Z,57192.19
2022-08-05T11:58:10.720Z,57181.75
2022-08-05T12:00:41.157Z,57179.66
2022-08-05T12:03:28.746Z,57152.53
2022-08-05T12:06:06.261Z,57183.84
2022-08-05T12:08:49.889Z,57181.75
2022-08-05T12:11:28.446Z,57154.59
2022-08-05T12:14:08.630Z,57156.69
2022-08-05T12:16:45.543Z,57140.00
2022-08-05T12:20:16.991Z,57119.13
2022-08-05T12:22:01.242Z,57175.47
2022-08-05T12:24:28.159Z,57140.00
2022-08-05T12:26:56.842Z,57142.09
2022-08-05T12:29:25.298Z,57148.34
2022-08-05T12:32:01.715Z,57102.44
2022-08-05T12:34:31.917Z,57150.44
2022-08-05T12:37:03.270Z,57131.66
2022-08-05T12:39:37.048Z,57156.69
2022-08-05T12:42:14.803Z,57110.78
2022-08-05T12:44:43.139Z,57154.59
2022-08-05T12:47:12.703Z,57175.47
2022-08-05T12:50:02.124Z,57146.25
2022-08-05T12:52:31.246Z,57158.78
2022-08-05T12:55:22.085Z,57152.53
2022-08-05T12:58:49.250Z,57217.22
2022-08-05T13:02:01.159Z,57158.78
2022-08-05T13:03:32.340Z,57175.47
2022-08-05T13:06:00.911Z,57183.84
2022-08-05T13:08:32.157Z,57169.22
2022-08-05T13:11:02.414Z,57190.09
2022-08-05T13:14:05.052Z,57148.34
2022-08-05T13:16:19.596Z,57152.53
2022-08-05T13:18:58.378Z,57142.09
2022-08-05T13:21:28.201Z,57173.41
2022-08-05T13:24:04.852Z,57177.56
2022-08-05T13:26:31.564Z,57140.00
2022-08-05T13:28:59.122Z,57131.66
2022-08-05T13:31:33.813Z,57169.22
2022-08-05T13:34:22.983Z,57137.91
2022-08-05T13:36:52.714Z,57173.41
2022-08-05T13:40:13.415Z,57188.00
2022-08-05T13:42:06.583Z,57127.47
2022-08-05T13:44:34.687Z,57148.34
2022-08-05T13:47:08.551Z,57173.41
2022-08-05T13:49:35.615Z,57154.59
2022-08-05T13:52:16.250Z,57150.44
2022-08-05T13:54:43.103Z,57183.84
2022-08-05T13:57:20.888Z,57144.19
2022-08-05T13:59:55.437Z,57125.38
2022-08-05T14:02:26.595Z,57152.53
2022-08-05T14:05:15.072Z,57133.75
2022-08-05T14:07:59.576Z,57171.31
2022-08-05T14:10:31.070Z,57135.81
2022-08-05T14:12:58.622Z,57171.31
2022-08-05T14:16:05.045Z,57158.78
2022-08-05T14:18:17.517Z,57165.03
2022-08-05T14:20:47.858Z,57192.19
2022-08-05T14:23:24.793Z,57160.88
2022-08-05T14:25:57.969Z,57188.00
2022-08-05T14:28:28.769Z,57150.44
2022-08-05T14:30:56.963Z,57140.00
2022-08-05T14:33:23.988Z,57173.41
2022-08-05T14:35:51.791Z,57137.91
2022-08-05T14:38:31.571Z,57146.25
2022-08-05T14:41:05.997Z,57129.56
2022-08-05T14:44:00.073Z,57133.75
2022-08-05T14:46:28.366Z,57162.97
2022-08-05T14:48:58.741Z,57173.41
2022-08-05T14:51:30.716Z,57135.81
2022-08-05T14:54:26.619Z,57123.31
2022-08-05T14:56:46.761Z,57142.09
2022-08-05T14:59:14.528Z,57104.53
2022-08-05T15:01:48.487Z,57152.53
2022-08-05T15:04:16.779Z,57137.91
2022-08-05T15:06:49.264Z,57175.47
2022-08-05T15:09:50.463Z,57165.03
2022-08-05T15:12:05.253Z,57171.31
2022-08-05T15:14:34.511Z,57173.41
2022-08-05T15:17:05.406Z,57160.88
2022-08-05T15:19:36.799Z,57162.97
2022-08-05T15:22:05.984Z,57190.09
2022-08-05T15:24:32.723Z,57165.03
2022-08-05T15:26:59.337Z,57150.44
2022-08-05T15:29:30.086Z,57146.25
2022-08-05T15:31:57.500Z,57177.56
2022-08-05T15:34:32.443Z,57154.59
2022-08-05T15:37:06.462Z,57169.22
2022-08-05T15:40:58.832Z,57167.13
2022-08-05T15:42:54.624Z,57160.88
2022-08-05T15:45:10.490Z,57140.00
2022-08-05T15:47:38.517Z,57169.22
2022-08-05T15:50:07.313Z,57110.78
2022-08-05T15:52:53.392Z,57162.97
2022-08-05T15:55:25.094Z,57160.88
2022-08-05T15:58:08.736Z,57158.78
2022-08-05T16:00:50.475Z,57190.09
2022-08-05T16:03:22.038Z,57154.59
2022-08-05T16:05:52.628Z,57183.84
2022-08-05T16:08:22.610Z,57140.00
2022-08-05T16:10:50.710Z,57204.69
2022-08-05T16:13:19.313Z,57160.88
2022-08-05T16:15:52.062Z,57154.59
2022-08-05T16:18:19.090Z,57173.41
2022-08-05T16:20:46.382Z,57179.66
2022-08-05T16:23:12.997Z,57181.75
2022-08-05T16:25:40.351Z,57171.31
2022-08-05T16:28:10.567Z,57196.34
2022-08-05T16:30:37.510Z,57162.97
2022-08-05T16:33:04.502Z,57198.44
2022-08-05T16:35:32.434Z,57140.00
2022-08-05T16:38:03.553Z,57162.97
2022-08-05T16:40:52.164Z,57179.66
2022-08-05T16:43:28.475Z,57204.69
2022-08-05T16:46:06.775Z,57194.25
2022-08-05T16:48:39.613Z,57171.31
2022-08-05T16:51:09.860Z,57183.84
2022-08-05T16:54:02.866Z,57162.97
2022-08-05T16:56:27.277Z,57173.41
2022-08-05T16:58:54.119Z,57185.91
2022-08-05T17:01:21.231Z,57162.97
2022-08-05T17:03:52.012Z,57162.97
2022-08-05T17:06:19.411Z,57173.41
2022-08-05T17:08:53.495Z,57169.22
2022-08-05T17:11:23.371Z,57181.75
2022-08-05T17:14:00.270Z,57150.44
2022-08-05T17:16:37.861Z,57154.59
2022-08-05T17:19:09.601Z,57194.25
2022-08-05T17:21:39.630Z,57188.00
2022-08-05T17:24:20.510Z,57208.88
2022-08-05T17:26:56.427Z,57200.53
2022-08-05T17:29:40.215Z,57160.88
2022-08-05T17:32:17.102Z,57215.13
2022-08-05T17:34:48.174Z,57175.47
2022-08-05T17:37:40.938Z,57137.91
2022-08-05T17:40:25.072Z,57200.53
2022-08-05T17:42:53.057Z,57188.00
2022-08-05T17:45:22.428Z,57204.69
2022-08-05T17:47:55.342Z,57183.84
2022-08-05T17:50:28.204Z,57185.91
2022-08-05T17:52:59.077Z,57154.59
2022-08-05T17:55:27.331Z,57190.09
2022-08-05T17:58:02.292Z,57158.78
2022-08-05T18:00:29.662Z,57152.53
2022-08-05T18:02:56.967Z,57144.19
2022-08-05T18:05:24.052Z,57162.97
2022-08-05T18:07:55.142Z,57196.34
2022-08-05T18:10:24.261Z,57202.63
2022-08-05T18:12:51.290Z,57175.47
2022-08-05T18:15:18.092Z,57173.41
2022-08-05T18:18:01.212Z,57150.44
2022-08-05T18:20:32.384Z,57183.84
2022-08-05T18:23:11.868Z,57198.44
2022-08-05T18:25:44.899Z,57196.34
2022-08-05T18:28:16.365Z,57210.97
2022-08-05T18:30:45.190Z,57179.66
2022-08-05T18:33:13.545Z,57215.13
2022-08-05T18:36:00.774Z,57162.97
2022-08-05T18:38:28.320Z,57165.03
2022-08-05T18:41:57.176Z,57169.22
2022-08-05T18:43:43.139Z,57152.53
2022-08-05T18:46:16.232Z,57181.75
2022-08-05T18:48:51.579Z,57208.88
2022-08-05T18:52:04.236Z,57188.00
2022-08-05T18:54:30.944Z,57175.47
2022-08-05T18:57:00.904Z,57179.66
2022-08-05T18:59:42.874Z,57202.63
2022-08-05T19:02:26.604Z,57173.41
2022-08-05T19:05:02.153Z,57240.19
2022-08-05T19:07:45.124Z,57169.22
2022-08-05T19:10:12.422Z,57213.06
2022-08-05T19:12:39.090Z,57194.25
2022-08-05T19:15:06.238Z,57179.66
2022-08-05T19:18:08.826Z,57202.63
2022-08-05T19:20:41.330Z,57177.56
2022-08-05T19:24:03.688Z,57192.19
2022-08-05T19:26:02.015Z,57192.19
2022-08-05T19:28:30.785Z,57238.09
2022-08-05T19:30:57.833Z,57162.97
2022-08-05T19:33:35.194Z,57248.53
2022-08-05T19:36:07.016Z,57154.59
2022-08-05T19:38:36.888Z,57204.69
2022-08-05T19:41:07.282Z,57227.66
2022-08-05T19:44:04.624Z,57188.00
2022-08-05T19:46:29.579Z,57231.84
2022-08-05T19:49:00.892Z,57236.00
2022-08-05T19:51:56.562Z,57210.97
2022-08-05T19:54:26.826Z,57173.41
2022-08-05T19:56:59.165Z,57183.84
2022-08-05T19:59:55.368Z,57179.66
2022-08-05T20:02:14.640Z,57185.91
2022-08-05T20:04:43.032Z,57238.09
2022-08-05T20:07:10.294Z,57221.41
2022-08-05T20:09:55.092Z,57210.97
2022-08-05T20:12:24.420Z,57185.91
2022-08-05T20:14:53.090Z,57229.75
2022-08-05T20:17:23.482Z,57192.19
2022-08-05T20:19:56.707Z,57198.44
2022-08-05T20:22:26.785Z,57198.44
2022-08-05T20:24:55.760Z,57200.53
2022-08-05T20:27:26.785Z,57231.84
2022-08-05T20:29:57.811Z,57196.34
2022-08-05T20:32:27.261Z,57219.31
2022-08-05T20:34:54.900Z,57198.44
2022-08-05T20:38:04.796Z,57196.34
2022-08-05T20:40:09.284Z,57244.34
2022-08-05T20:42:36.347Z,57204.69
2022-08-05T20:45:04.208Z,57273.56
2022-08-05T20:47:32.733Z,57233.91
2022-08-05T20:50:02.100Z,57246.44
2022-08-05T20:52:29.558Z,57229.75
2022-08-05T20:55:54.994Z,57231.84
2022-08-05T20:57:44.804Z,57202.63
2022-08-05T21:00:40.172Z,57219.31
2022-08-05T21:03:07.357Z,57217.22
2022-08-05T21:05:48.229Z,57206.78
2022-08-05T21:08:26.875Z,57204.69
2022-08-05T21:11:09.866Z,57204.69
2022-08-05T21:13:48.337Z,57227.66
2022-08-05T21:16:29.377Z,57256.88
2022-08-05T21:19:01.369Z,57217.22
2022-08-05T21:21:39.305Z,57229.75
2022-08-05T21:24:12.870Z,57213.06
2022-08-05T21:26:41.384Z,57236.00
2022-08-05T21:29:12.644Z,57188.00
2022-08-05T21:31:43.540Z,57233.91
2022-08-05T21:34:11.357Z,57188.00
2022-08-05T21:36:38.662Z,57225.56
2022-08-05T21:39:05.493Z,57236.00
2022-08-05T21:41:35.407Z,57198.44
2022-08-05T21:44:04.364Z,57210.97
2022-08-05T21:46:35.035Z,57219.31
2022-08-05T21:49:04.768Z,57213.06
2022-08-05T21:52:21.689Z,57210.97
2022-08-05T21:54:27.865Z,57242.28
2022-08-05T21:57:15.468Z,57173.41
2022-08-05T22:00:03.000Z,57223.50
2022-08-05T22:02:30.351Z,57238.09
2022-08-05T22:04:58.585Z,57238.09
2022-08-05T22:07:40.392Z,57229.75
2022-08-05T22:10:12.894Z,57231.84
2022-08-05T22:12:45.092Z,57242.28
2022-08-05T22:16:01.704Z,57231.84
2022-08-05T22:18:05.647Z,57198.44
2022-08-05T22:20:32.558Z,57213.06
2022-08-05T22:23:21.399Z,57240.19
2022-08-05T22:26:09.684Z,57217.22
2022-08-05T22:28:38.577Z,57238.09
2022-08-05T22:31:06.259Z,57250.63
2022-08-05T22:33:58.407Z,57258.97
2022-08-05T22:36:24.112Z,57231.84
2022-08-05T22:38:51.686Z,57219.31
2022-08-05T22:42:05.044Z,57179.66
2022-08-05T22:44:09.362Z,57206.78
2022-08-05T22:46:39.862Z,57213.06
2022-08-05T22:49:23.058Z,57238.09
2022-08-05T22:52:05.772Z,57225.56
2022-08-05T22:54:37.703Z,57263.16
2022-08-05T22:57:06.678Z,57238.09
2022-08-05T22:59:45.894Z,57221.41
2022-08-05T23:02:17.911Z,57181.75
2022-08-05T23:04:51.577Z,57275.66
2022-08-05T23:07:22.100Z,57217.22
2022-08-05T23:09:58.580Z,57242.28
2022-08-05T23:12:32.894Z,57256.88
2022-08-05T23:15:08.536Z,57254.78
2022-08-05T23:17:59.731Z,57225.56
2022-08-05T23:20:23.442Z,57250.63
2022-08-05T23:22:54.155Z,57202.63
2022-08-05T23:25:51.361Z,57208.88
2022-08-05T23:28:09.898Z,57215.13
2022-08-05T23:30:40.174Z,57231.84
2022-08-05T23:33:16.224Z,57233.91
2022-08-05T23:35:50.653Z,57240.19
2022-08-05T23:38:18.029Z,57246.44
2022-08-05T23:40:50.017Z,57254.78
2022-08-05T23:43:25.472Z,57213.06
2022-08-05T23:46:20.633Z,57252.72
2022-08-05T23:49:00.490Z,57250.63
2022-08-05T23:51:54.218Z,57188.00
2022-08-05T23:54:29.986Z,57202.63
2022-08-05T23:57:04.101Z,57254.78
